sensor_id;sensor_type;location;lat;lon;timestamp;pressure;altitude;pressure_sealevel;temperature;humidity
78800;BME280;68148;55.328;86.106;2023-03-23T00:01:12;100622.56;;;-12.82;68.97
78800;BME280;68148;55.328;86.106;2023-03-23T00:03:40;100616.66;;;-12.83;69.23
78800;BME280;68148;55.328;86.106;2023-03-23T00:06:07;100626.78;;;-12.81;69.30
78800;BME280;68148;55.328;86.106;2023-03-23T00:08:37;100619.97;;;-12.78;69.15
78800;BME280;68148;55.328;86.106;2023-03-23T00:11:04;100627.56;;;-12.75;68.68
78800;BME280;68148;55.328;86.106;2023-03-23T00:13:30;100623.28;;;-12.70;68.21
78800;BME280;68148;55.328;86.106;2023-03-23T00:15:56;100624.09;;;-12.69;68.15
78800;BME280;68148;55.328;86.106;2023-03-23T00:18:23;100622.47;;;-12.73;67.89
78800;BME280;68148;55.328;86.106;2023-03-23T00:20:54;100616.75;;;-12.91;68.13
78800;BME280;68148;55.328;86.106;2023-03-23T00:23:23;100614.28;;;-12.97;69.09
78800;BME280;68148;55.328;86.106;2023-03-23T00:25:55;100613.38;;;-12.94;68.63
78800;BME280;68148;55.328;86.106;2023-03-23T00:28:22;100610.13;;;-13.04;69.20
78800;BME280;68148;55.328;86.106;2023-03-23T00:30:48;100610.13;;;-13.07;69.10
78800;BME280;68148;55.328;86.106;2023-03-23T00:33:14;100600.06;;;-13.15;69.93
78800;BME280;68148;55.328;86.106;2023-03-23T00:35:40;100596.72;;;-13.18;69.99
78800;BME280;68148;55.328;86.106;2023-03-23T00:38:06;100597.50;;;-13.10;69.47
78800;BME280;68148;55.328;86.106;2023-03-23T00:40:32;100599.13;;;-13.04;70.15
78800;BME280;68148;55.328;86.106;2023-03-23T00:42:58;100589.66;;;-12.93;69.11
78800;BME280;68148;55.328;86.106;2023-03-23T00:45:24;100590.44;;;-12.87;69.09
78800;BME280;68148;55.328;86.106;2023-03-23T00:47:50;100594.53;;;-12.76;68.64
78800;BME280;68148;55.328;86.106;2023-03-23T00:50:25;100602.22;;;-12.79;68.21
78800;BME280;68148;55.328;86.106;2023-03-23T00:52:51;100593.63;;;-12.72;68.58
78800;BME280;68148;55.328;86.106;2023-03-23T00:55:18;100594.38;;;-12.64;68.31
78800;BME280;68148;55.328;86.106;2023-03-23T00:57:49;100598.50;;;-12.54;67.96
78800;BME280;68148;55.328;86.106;2023-03-23T01:00:18;100594.09;;;-12.41;67.72
78800;BME280;68148;55.328;86.106;2023-03-23T01:02:44;100590.69;;;-12.40;67.79
78800;BME280;68148;55.328;86.106;2023-03-23T01:05:11;100596.47;;;-12.30;67.68
78800;BME280;68148;55.328;86.106;2023-03-23T01:07:37;100594.53;;;-12.13;67.65
78800;BME280;68148;55.328;86.106;2023-03-23T01:10:04;100596.75;;;-11.90;66.99
78800;BME280;68148;55.328;86.106;2023-03-23T01:12:30;100597.38;;;-11.77;66.59
78800;BME280;68148;55.328;86.106;2023-03-23T01:14:56;100608.16;;;-11.63;65.39
78800;BME280;68148;55.328;86.106;2023-03-23T01:17:22;100599.50;;;-11.54;65.53
78800;BME280;68148;55.328;86.106;2023-03-23T01:19:48;100606.03;;;-11.40;64.43
78800;BME280;68148;55.328;86.106;2023-03-23T01:22:14;100594.97;;;-11.37;64.42
78800;BME280;68148;55.328;86.106;2023-03-23T01:24:40;100598.97;;;-11.24;64.02
78800;BME280;68148;55.328;86.106;2023-03-23T01:27:06;100604.63;;;-11.08;64.85
78800;BME280;68148;55.328;86.106;2023-03-23T01:29:33;100605.88;;;-11.30;64.22
78800;BME280;68148;55.328;86.106;2023-03-23T01:32:00;100601.06;;;-11.46;65.09
78800;BME280;68148;55.328;86.106;2023-03-23T01:34:26;100606.94;;;-11.42;65.86
78800;BME280;68148;55.328;86.106;2023-03-23T01:36:52;100602.72;;;-11.43;65.62
78800;BME280;68148;55.328;86.106;2023-03-23T01:39:18;100600.28;;;-11.49;64.63
78800;BME280;68148;55.328;86.106;2023-03-23T01:41:44;100598.19;;;-11.27;64.96
78800;BME280;68148;55.328;86.106;2023-03-23T01:46:42;100601.53;;;-10.79;62.30
78800;BME280;68148;55.328;86.106;2023-03-23T01:49:20;100598.84;;;-10.73;62.80
78800;BME280;68148;55.328;86.106;2023-03-23T01:51:50;100600.91;;;-10.50;60.84
78800;BME280;68148;55.328;86.106;2023-03-23T01:54:19;100600.41;;;-10.67;61.21
78800;BME280;68148;55.328;86.106;2023-03-23T01:56:56;100597.16;;;-10.33;61.05
78800;BME280;68148;55.328;86.106;2023-03-23T01:59:25;100591.88;;;-10.66;61.20
78800;BME280;68148;55.328;86.106;2023-03-23T02:01:53;100588.25;;;-10.54;61.35
78800;BME280;68148;55.328;86.106;2023-03-23T02:04:20;100587.06;;;-10.38;60.57
78800;BME280;68148;55.328;86.106;2023-03-23T02:06:48;100589.66;;;-10.41;60.24
78800;BME280;68148;55.328;86.106;2023-03-23T02:09:15;100595.84;;;-10.14;60.13
78800;BME280;68148;55.328;86.106;2023-03-23T02:11:41;100586.78;;;-10.26;60.23
78800;BME280;68148;55.328;86.106;2023-03-23T02:14:07;100587.00;;;-10.37;60.80
78800;BME280;68148;55.328;86.106;2023-03-23T02:22:02;100590.25;;;-9.93;59.38
78800;BME280;68148;55.328;86.106;2023-03-23T02:31:15;100583.75;;;-9.70;58.32
78800;BME280;68148;55.328;86.106;2023-03-23T02:36:10;100580.25;;;-9.68;58.77
78800;BME280;68148;55.328;86.106;2023-03-23T02:39:08;100576.06;;;-9.36;58.08
78800;BME280;68148;55.328;86.106;2023-03-23T02:42:00;100579.28;;;-9.62;58.48
78800;BME280;68148;55.328;86.106;2023-03-23T02:44:29;100567.47;;;-9.34;58.44
78800;BME280;68148;55.328;86.106;2023-03-23T02:46:59;100566.63;;;-9.32;58.05
78800;BME280;68148;55.328;86.106;2023-03-23T02:49:28;100569.25;;;-9.04;58.18
78800;BME280;68148;55.328;86.106;2023-03-23T02:51:56;100571.81;;;-9.04;57.37
78800;BME280;68148;55.328;86.106;2023-03-23T02:54:27;100566.34;;;-8.92;57.23
78800;BME280;68148;55.328;86.106;2023-03-23T02:56:54;100565.19;;;-8.80;57.41
78800;BME280;68148;55.328;86.106;2023-03-23T02:59:22;100578.13;;;-8.57;55.36
78800;BME280;68148;55.328;86.106;2023-03-23T03:01:55;100568.34;;;-8.43;55.59
78800;BME280;68148;55.328;86.106;2023-03-23T03:04:24;100563.31;;;-8.46;55.43
78800;BME280;68148;55.328;86.106;2023-03-23T03:07:08;100573.66;;;-8.22;55.09
78800;BME280;68148;55.328;86.106;2023-03-23T03:09:52;100560.84;;;-8.22;54.74
78800;BME280;68148;55.328;86.106;2023-03-23T03:12:42;100559.72;;;-8.14;55.49
78800;BME280;68148;55.328;86.106;2023-03-23T03:15:34;100557.38;;;-7.42;53.23
78800;BME280;68148;55.328;86.106;2023-03-23T03:18:13;100558.66;;;-7.53;53.13
78800;BME280;68148;55.328;86.106;2023-03-23T03:21:10;100553.31;;;-6.99;52.68
78800;BME280;68148;55.328;86.106;2023-03-23T03:23:36;100551.94;;;-7.33;53.63
78800;BME280;68148;55.328;86.106;2023-03-23T03:26:04;100556.63;;;-7.45;54.11
78800;BME280;68148;55.328;86.106;2023-03-23T03:28:32;100556.53;;;-7.42;53.42
78800;BME280;68148;55.328;86.106;2023-03-23T03:31:08;100550.16;;;-7.56;53.91
78800;BME280;68148;55.328;86.106;2023-03-23T03:33:34;100543.88;;;-7.47;53.09
78800;BME280;68148;55.328;86.106;2023-03-23T03:36:03;100546.59;;;-7.51;53.34
78800;BME280;68148;55.328;86.106;2023-03-23T03:38:46;100545.13;;;-7.59;55.43
78800;BME280;68148;55.328;86.106;2023-03-23T03:41:14;100544.41;;;-7.62;54.38
78800;BME280;68148;55.328;86.106;2023-03-23T03:43:40;100533.69;;;-7.73;54.25
78800;BME280;68148;55.328;86.106;2023-03-23T03:46:06;100537.84;;;-7.71;54.68
78800;BME280;68148;55.328;86.106;2023-03-23T03:48:34;100542.63;;;-7.60;52.94
78800;BME280;68148;55.328;86.106;2023-03-23T03:51:01;100536.56;;;-7.58;52.34
78800;BME280;68148;55.328;86.106;2023-03-23T03:53:30;100533.59;;;-7.70;53.93
78800;BME280;68148;55.328;86.106;2023-03-23T03:55:56;100531.03;;;-7.70;54.48
78800;BME280;68148;55.328;86.106;2023-03-23T03:58:22;100523.69;;;-7.56;54.13
78800;BME280;68148;55.328;86.106;2023-03-23T04:00:52;100521.53;;;-7.18;52.45
78800;BME280;68148;55.328;86.106;2023-03-23T04:03:18;100524.69;;;-7.12;52.83
78800;BME280;68148;55.328;86.106;2023-03-23T04:05:44;100529.81;;;-7.12;51.21
78800;BME280;68148;55.328;86.106;2023-03-23T04:08:11;100521.28;;;-7.36;52.18
78800;BME280;68148;55.328;86.106;2023-03-23T04:10:37;100518.97;;;-7.43;52.07
78800;BME280;68148;55.328;86.106;2023-03-23T04:13:05;100512.78;;;-7.38;52.62
78800;BME280;68148;55.328;86.106;2023-03-23T04:15:31;100516.25;;;-7.39;52.11
78800;BME280;68148;55.328;86.106;2023-03-23T04:17:57;100511.69;;;-7.31;54.29
78800;BME280;68148;55.328;86.106;2023-03-23T04:20:24;100508.97;;;-7.26;52.40
78800;BME280;68148;55.328;86.106;2023-03-23T04:22:51;100510.84;;;-7.06;52.49
78800;BME280;68148;55.328;86.106;2023-03-23T04:25:19;100502.00;;;-6.75;52.72
78800;BME280;68148;55.328;86.106;2023-03-23T04:27:45;100499.56;;;-6.57;51.42
78800;BME280;68148;55.328;86.106;2023-03-23T04:30:12;100499.38;;;-6.30;51.98
78800;BME280;68148;55.328;86.106;2023-03-23T04:32:39;100496.53;;;-5.82;50.12
78800;BME280;68148;55.328;86.106;2023-03-23T04:35:05;100501.41;;;-5.75;49.26
78800;BME280;68148;55.328;86.106;2023-03-23T04:37:32;100489.13;;;-5.89;47.95
78800;BME280;68148;55.328;86.106;2023-03-23T04:39:58;100495.13;;;-5.48;49.13
78800;BME280;68148;55.328;86.106;2023-03-23T04:42:24;100497.91;;;-5.34;48.39
78800;BME280;68148;55.328;86.106;2023-03-23T04:44:50;100490.44;;;-5.40;48.10
78800;BME280;68148;55.328;86.106;2023-03-23T04:47:17;100489.63;;;-5.40;48.33
78800;BME280;68148;55.328;86.106;2023-03-23T04:49:43;100483.91;;;-5.26;48.16
78800;BME280;68148;55.328;86.106;2023-03-23T04:52:10;100473.31;;;-5.01;48.66
78800;BME280;68148;55.328;86.106;2023-03-23T04:54:36;100479.25;;;-4.99;47.81
78800;BME280;68148;55.328;86.106;2023-03-23T04:57:02;100468.53;;;-4.54;47.45
78800;BME280;68148;55.328;86.106;2023-03-23T04:59:28;100466.53;;;-4.47;47.16
78800;BME280;68148;55.328;86.106;2023-03-23T05:01:54;100465.16;;;-4.37;45.93
78800;BME280;68148;55.328;86.106;2023-03-23T05:04:21;100462.94;;;-4.62;46.72
78800;BME280;68148;55.328;86.106;2023-03-23T05:06:48;100458.91;;;-4.68;47.45
78800;BME280;68148;55.328;86.106;2023-03-23T05:09:14;100458.63;;;-4.62;47.19
78800;BME280;68148;55.328;86.106;2023-03-23T05:11:40;100453.44;;;-4.43;47.53
78800;BME280;68148;55.328;86.106;2023-03-23T05:14:06;100454.38;;;-4.26;46.94
78800;BME280;68148;55.328;86.106;2023-03-23T05:16:32;100457.19;;;-4.50;46.57
78800;BME280;68148;55.328;86.106;2023-03-23T05:19:04;100456.56;;;-4.36;46.97
78800;BME280;68148;55.328;86.106;2023-03-23T05:21:31;100448.41;;;-4.46;47.07
78800;BME280;68148;55.328;86.106;2023-03-23T05:23:57;100444.16;;;-4.28;45.91
78800;BME280;68148;55.328;86.106;2023-03-23T05:26:23;100444.56;;;-4.37;46.68
78800;BME280;68148;55.328;86.106;2023-03-23T05:28:49;100443.28;;;-4.29;45.52
78800;BME280;68148;55.328;86.106;2023-03-23T05:31:15;100438.38;;;-4.16;46.19
78800;BME280;68148;55.328;86.106;2023-03-23T05:33:41;100449.44;;;-3.96;45.88
78800;BME280;68148;55.328;86.106;2023-03-23T05:36:08;100438.59;;;-4.03;45.69
78800;BME280;68148;55.328;86.106;2023-03-23T05:38:33;100422.94;;;-3.65;45.68
78800;BME280;68148;55.328;86.106;2023-03-23T05:41:00;100431.72;;;-3.52;45.41
78800;BME280;68148;55.328;86.106;2023-03-23T05:43:26;100415.53;;;-3.56;45.90
78800;BME280;68148;55.328;86.106;2023-03-23T05:45:52;100414.94;;;-3.28;45.91
78800;BME280;68148;55.328;86.106;2023-03-23T05:48:19;100414.47;;;-3.03;45.24
78800;BME280;68148;55.328;86.106;2023-03-23T05:50:45;100416.03;;;-3.16;45.26
78800;BME280;68148;55.328;86.106;2023-03-23T05:53:11;100414.88;;;-3.10;45.45
78800;BME280;68148;55.328;86.106;2023-03-23T05:55:37;100409.78;;;-3.28;44.34
78800;BME280;68148;55.328;86.106;2023-03-23T05:58:04;100406.53;;;-3.15;45.38
78800;BME280;68148;55.328;86.106;2023-03-23T06:00:30;100407.88;;;-2.77;44.94
78800;BME280;68148;55.328;86.106;2023-03-23T06:02:57;100400.97;;;-2.92;44.87
78800;BME280;68148;55.328;86.106;2023-03-23T06:05:23;100393.78;;;-2.71;44.33
78800;BME280;68148;55.328;86.106;2023-03-23T06:07:49;100388.50;;;-2.54;43.56
78800;BME280;68148;55.328;86.106;2023-03-23T06:10:15;100390.31;;;-2.40;42.79
78800;BME280;68148;55.328;86.106;2023-03-23T06:12:41;100390.31;;;-2.40;42.73
78800;BME280;68148;55.328;86.106;2023-03-23T06:15:08;100390.38;;;-2.11;43.19
78800;BME280;68148;55.328;86.106;2023-03-23T06:17:36;100383.72;;;-2.45;43.12
78800;BME280;68148;55.328;86.106;2023-03-23T06:20:06;100382.66;;;-2.57;42.66
78800;BME280;68148;55.328;86.106;2023-03-23T06:22:32;100375.78;;;-2.12;42.71
78800;BME280;68148;55.328;86.106;2023-03-23T06:24:58;100376.72;;;-1.99;41.96
78800;BME280;68148;55.328;86.106;2023-03-23T06:27:24;100376.50;;;-2.24;41.34
78800;BME280;68148;55.328;86.106;2023-03-23T06:29:50;100371.72;;;-2.46;42.31
78800;BME280;68148;55.328;86.106;2023-03-23T06:32:16;100366.81;;;-2.07;41.92
78800;BME280;68148;55.328;86.106;2023-03-23T06:34:42;100368.41;;;-1.90;41.89
78800;BME280;68148;55.328;86.106;2023-03-23T06:37:10;100354.03;;;-1.65;42.18
78800;BME280;68148;55.328;86.106;2023-03-23T06:39:36;100360.00;;;-1.51;41.42
78800;BME280;68148;55.328;86.106;2023-03-23T06:42:02;100356.88;;;-1.56;40.96
78800;BME280;68148;55.328;86.106;2023-03-23T06:44:28;100350.88;;;-1.56;40.84
78800;BME280;68148;55.328;86.106;2023-03-23T06:46:54;100347.63;;;-1.04;41.25
78800;BME280;68148;55.328;86.106;2023-03-23T06:49:20;100333.78;;;-0.90;39.60
78800;BME280;68148;55.328;86.106;2023-03-23T06:51:46;100339.03;;;-0.65;39.30
78800;BME280;68148;55.328;86.106;2023-03-23T06:54:13;100332.75;;;-0.48;40.19
78800;BME280;68148;55.328;86.106;2023-03-23T06:56:39;100330.81;;;-0.32;40.03
78800;BME280;68148;55.328;86.106;2023-03-23T06:59:05;100317.66;;;-0.81;39.64
78800;BME280;68148;55.328;86.106;2023-03-23T07:01:31;100318.13;;;-0.49;38.59
78800;BME280;68148;55.328;86.106;2023-03-23T07:03:57;100320.88;;;-0.38;40.07
78800;BME280;68148;55.328;86.106;2023-03-23T07:06:24;100315.44;;;-0.35;38.25
78800;BME280;68148;55.328;86.106;2023-03-23T07:08:50;100318.38;;;-0.01;39.47
78800;BME280;68148;55.328;86.106;2023-03-23T07:11:16;100307.91;;;0.13;37.83
78800;BME280;68148;55.328;86.106;2023-03-23T07:13:42;100303.88;;;0.46;40.16
78800;BME280;68148;55.328;86.106;2023-03-23T07:16:08;100297.94;;;0.57;37.13
78800;BME280;68148;55.328;86.106;2023-03-23T07:18:34;100296.25;;;0.32;36.80
78800;BME280;68148;55.328;86.106;2023-03-23T07:21:00;100296.28;;;-0.32;36.27
78800;BME280;68148;55.328;86.106;2023-03-23T07:23:26;100283.00;;;-0.28;37.98
78800;BME280;68148;55.328;86.106;2023-03-23T07:25:52;100281.97;;;-0.25;37.42
78800;BME280;68148;55.328;86.106;2023-03-23T07:28:18;100280.06;;;0.03;37.88
78800;BME280;68148;55.328;86.106;2023-03-23T07:30:44;100273.28;;;0.25;37.27
78800;BME280;68148;55.328;86.106;2023-03-23T07:33:10;100271.28;;;0.05;36.31
78800;BME280;68148;55.328;86.106;2023-03-23T07:35:36;100277.81;;;0.47;38.76
78800;BME280;68148;55.328;86.106;2023-03-23T07:38:04;100272.22;;;0.41;38.02
78800;BME280;68148;55.328;86.106;2023-03-23T07:40:30;100263.69;;;0.75;38.94
78800;BME280;68148;55.328;86.106;2023-03-23T07:42:57;100260.38;;;0.73;37.48
78800;BME280;68148;55.328;86.106;2023-03-23T07:45:23;100245.97;;;1.05;36.71
78800;BME280;68148;55.328;86.106;2023-03-23T07:47:50;100247.44;;;0.85;37.92
78800;BME280;68148;55.328;86.106;2023-03-23T07:50:18;100239.88;;;0.82;36.66
78800;BME280;68148;55.328;86.106;2023-03-23T07:52:44;100244.41;;;0.43;37.89
78800;BME280;68148;55.328;86.106;2023-03-23T07:55:12;100235.94;;;0.76;37.10
78800;BME280;68148;55.328;86.106;2023-03-23T07:57:38;100237.97;;;1.08;37.63
78800;BME280;68148;55.328;86.106;2023-03-23T08:00:05;100228.94;;;1.24;37.04
78800;BME280;68148;55.328;86.106;2023-03-23T08:02:31;100234.09;;;1.13;37.00
78800;BME280;68148;55.328;86.106;2023-03-23T08:04:57;100232.94;;;1.29;35.28
78800;BME280;68148;55.328;86.106;2023-03-23T08:07:23;100231.59;;;1.12;36.47
78800;BME280;68148;55.328;86.106;2023-03-23T08:09:49;100230.56;;;1.25;37.40
78800;BME280;68148;55.328;86.106;2023-03-23T08:12:16;100224.72;;;1.57;36.07
78800;BME280;68148;55.328;86.106;2023-03-23T08:14:42;100221.81;;;1.27;35.04
78800;BME280;68148;55.328;86.106;2023-03-23T08:17:08;100217.34;;;1.29;34.73
78800;BME280;68148;55.328;86.106;2023-03-23T08:19:34;100213.25;;;1.71;37.26
78800;BME280;68148;55.328;86.106;2023-03-23T08:22:00;100213.47;;;1.45;34.72
78800;BME280;68148;55.328;86.106;2023-03-23T08:24:26;100207.81;;;1.63;35.97
78800;BME280;68148;55.328;86.106;2023-03-23T08:26:53;100208.84;;;1.49;35.05
78800;BME280;68148;55.328;86.106;2023-03-23T08:29:19;100208.41;;;1.78;35.64
78800;BME280;68148;55.328;86.106;2023-03-23T08:31:45;100202.63;;;1.85;34.69
78800;BME280;68148;55.328;86.106;2023-03-23T08:34:11;100192.72;;;2.22;36.28
78800;BME280;68148;55.328;86.106;2023-03-23T08:36:37;100186.97;;;1.96;33.67
78800;BME280;68148;55.328;86.106;2023-03-23T08:39:03;100190.19;;;1.78;36.11
78800;BME280;68148;55.328;86.106;2023-03-23T08:41:29;100181.91;;;1.84;34.35
78800;BME280;68148;55.328;86.106;2023-03-23T08:43:55;100183.78;;;2.15;36.52
78800;BME280;68148;55.328;86.106;2023-03-23T08:46:21;100183.81;;;1.93;35.42
78800;BME280;68148;55.328;86.106;2023-03-23T08:48:47;100178.59;;;1.93;35.27
78800;BME280;68148;55.328;86.106;2023-03-23T08:51:15;100171.03;;;1.79;34.33
78800;BME280;68148;55.328;86.106;2023-03-23T08:53:41;100174.81;;;1.52;35.02
78800;BME280;68148;55.328;86.106;2023-03-23T08:56:09;100168.06;;;1.83;36.86
78800;BME280;68148;55.328;86.106;2023-03-23T08:58:36;100173.50;;;1.58;34.12
78800;BME280;68148;55.328;86.106;2023-03-23T09:01:03;100156.16;;;1.47;35.54
78800;BME280;68148;55.328;86.106;2023-03-23T09:03:30;100162.06;;;1.38;35.95
78800;BME280;68148;55.328;86.106;2023-03-23T09:05:59;100163.47;;;1.53;35.53
78800;BME280;68148;55.328;86.106;2023-03-23T09:08:27;100156.00;;;1.48;35.22
78800;BME280;68148;55.328;86.106;2023-03-23T09:10:53;100152.56;;;1.37;34.25
78800;BME280;68148;55.328;86.106;2023-03-23T09:13:19;100153.31;;;1.50;34.98
78800;BME280;68148;55.328;86.106;2023-03-23T09:15:45;100145.97;;;1.55;36.82
78800;BME280;68148;55.328;86.106;2023-03-23T09:18:11;100150.19;;;1.11;35.17
78800;BME280;68148;55.328;86.106;2023-03-23T09:20:37;100132.00;;;1.22;37.07
78800;BME280;68148;55.328;86.106;2023-03-23T09:23:03;100138.56;;;0.93;35.82
78800;BME280;68148;55.328;86.106;2023-03-23T09:25:29;100127.47;;;1.02;37.63
78800;BME280;68148;55.328;86.106;2023-03-23T09:27:57;100130.09;;;1.02;35.81
78800;BME280;68148;55.328;86.106;2023-03-23T09:30:25;100123.38;;;1.22;36.44
78800;BME280;68148;55.328;86.106;2023-03-23T09:32:54;100122.78;;;1.41;36.18
78800;BME280;68148;55.328;86.106;2023-03-23T09:35:21;100116.66;;;1.53;36.83
78800;BME280;68148;55.328;86.106;2023-03-23T09:37:48;100110.38;;;1.56;36.64
78800;BME280;68148;55.328;86.106;2023-03-23T09:40:21;100109.31;;;1.81;38.75
78800;BME280;68148;55.328;86.106;2023-03-23T09:51:41;100097.50;;;1.43;38.12
78800;BME280;68148;55.328;86.106;2023-03-23T09:56:37;100086.50;;;1.62;36.92
78800;BME280;68148;55.328;86.106;2023-03-23T09:59:38;100083.00;;;1.84;36.74
78800;BME280;68148;55.328;86.106;2023-03-23T10:02:16;100075.09;;;1.85;36.32
78800;BME280;68148;55.328;86.106;2023-03-23T10:04:46;100070.56;;;1.98;35.70
78800;BME280;68148;55.328;86.106;2023-03-23T10:09:41;100066.25;;;1.77;36.10
78800;BME280;68148;55.328;86.106;2023-03-23T10:14:59;100061.38;;;1.83;38.13
78800;BME280;68148;55.328;86.106;2023-03-23T10:22:42;100049.44;;;2.13;37.62
78800;BME280;68148;55.328;86.106;2023-03-23T10:25:23;100049.47;;;1.81;35.89
78800;BME280;68148;55.328;86.106;2023-03-23T10:28:19;100051.75;;;1.40;36.50
78800;BME280;68148;55.328;86.106;2023-03-23T10:30:56;100046.78;;;1.48;36.52
78800;BME280;68148;55.328;86.106;2023-03-23T10:33:34;100041.59;;;1.15;36.94
78800;BME280;68148;55.328;86.106;2023-03-23T10:36:16;100043.84;;;1.31;36.56
78800;BME280;68148;55.328;86.106;2023-03-23T10:38:47;100038.66;;;1.31;37.11
78800;BME280;68148;55.328;86.106;2023-03-23T10:41:17;100039.94;;;1.03;36.12
78800;BME280;68148;55.328;86.106;2023-03-23T10:43:44;100032.06;;;1.04;37.25
78800;BME280;68148;55.328;86.106;2023-03-23T10:48:38;100029.09;;;1.09;36.28
78800;BME280;68148;55.328;86.106;2023-03-23T10:51:10;100022.81;;;0.89;36.82
78800;BME280;68148;55.328;86.106;2023-03-23T10:53:44;100014.31;;;1.09;36.02
78800;BME280;68148;55.328;86.106;2023-03-23T10:59:20;100013.84;;;1.27;36.95
78800;BME280;68148;55.328;86.106;2023-03-23T11:01:50;100009.59;;;1.25;36.85
78800;BME280;68148;55.328;86.106;2023-03-23T11:04:19;100013.28;;;1.12;35.84
78800;BME280;68148;55.328;86.106;2023-03-23T11:06:50;100006.53;;;1.09;36.36
78800;BME280;68148;55.328;86.106;2023-03-23T11:09:19;99997.53;;;1.02;36.61
78800;BME280;68148;55.328;86.106;2023-03-23T11:11:52;100000.84;;;1.15;38.25
78800;BME280;68148;55.328;86.106;2023-03-23T11:14:32;100000.75;;;0.94;37.55
78800;BME280;68148;55.328;86.106;2023-03-23T11:17:00;100001.59;;;0.95;39.11
78800;BME280;68148;55.328;86.106;2023-03-23T11:19:28;100004.06;;;0.96;37.08
78800;BME280;68148;55.328;86.106;2023-03-23T11:24:41;99986.56;;;0.98;37.52
78800;BME280;68148;55.328;86.106;2023-03-23T11:27:09;99988.47;;;0.74;37.96
78800;BME280;68148;55.328;86.106;2023-03-23T11:29:43;99984.91;;;0.64;38.48
78800;BME280;68148;55.328;86.106;2023-03-23T11:32:11;99980.28;;;0.67;38.82
78800;BME280;68148;55.328;86.106;2023-03-23T11:34:43;99983.97;;;0.76;37.63
78800;BME280;68148;55.328;86.106;2023-03-23T11:37:13;99982.44;;;0.62;38.34
78800;BME280;68148;55.328;86.106;2023-03-23T11:39:55;99973.44;;;0.55;38.34
78800;BME280;68148;55.328;86.106;2023-03-23T11:42:25;99974.13;;;0.46;38.60
78800;BME280;68148;55.328;86.106;2023-03-23T11:44:52;99973.09;;;0.48;40.88
78800;BME280;68148;55.328;86.106;2023-03-23T11:52:59;99973.06;;;0.26;39.36
78800;BME280;68148;55.328;86.106;2023-03-23T11:58:00;99974.19;;;0.11;39.05
78800;BME280;68148;55.328;86.106;2023-03-23T12:00:28;99975.84;;;0.12;40.89
78800;BME280;68148;55.328;86.106;2023-03-23T12:03:14;99976.66;;;0.12;40.65
78800;BME280;68148;55.328;86.106;2023-03-23T12:11:52;99968.38;;;-0.04;40.60
78800;BME280;68148;55.328;86.106;2023-03-23T12:14:33;99963.75;;;-0.12;41.24
78800;BME280;68148;55.328;86.106;2023-03-23T12:19:56;99961.16;;;-0.12;40.50
78800;BME280;68148;55.328;86.106;2023-03-23T12:25:13;99968.75;;;-0.21;41.72
78800;BME280;68148;55.328;86.106;2023-03-23T12:42:55;99935.03;;;-0.21;42.82
78800;BME280;68148;55.328;86.106;2023-03-23T12:48:39;99933.38;;;-0.22;41.87
78800;BME280;68148;55.328;86.106;2023-03-23T12:56:37;99925.25;;;-0.29;42.69
78800;BME280;68148;55.328;86.106;2023-03-23T12:59:18;99925.13;;;-0.28;43.08
78800;BME280;68148;55.328;86.106;2023-03-23T13:01:48;99918.66;;;-0.22;42.55
78800;BME280;68148;55.328;86.106;2023-03-23T13:04:30;99919.31;;;-0.07;43.55
78800;BME280;68148;55.328;86.106;2023-03-23T13:07:00;99925.16;;;-0.16;43.20
78800;BME280;68148;55.328;86.106;2023-03-23T13:12:03;99909.56;;;-0.28;43.64
78800;BME280;68148;55.328;86.106;2023-03-23T13:22:43;99916.97;;;-0.34;43.90
78800;BME280;68148;55.328;86.106;2023-03-23T13:25:52;99917.69;;;-0.32;44.18
78800;BME280;68148;55.328;86.106;2023-03-23T13:28:28;99904.00;;;-0.34;44.32
78800;BME280;68148;55.328;86.106;2023-03-23T13:31:00;99904.09;;;-0.36;45.01
78800;BME280;68148;55.328;86.106;2023-03-23T13:33:34;99901.31;;;-0.33;44.75
78800;BME280;68148;55.328;86.106;2023-03-23T13:36:12;99893.75;;;-0.36;44.75
78800;BME280;68148;55.328;86.106;2023-03-23T13:38:45;99892.78;;;-0.35;45.03
78800;BME280;68148;55.328;86.106;2023-03-23T13:41:13;99897.97;;;-0.35;45.46
78800;BME280;68148;55.328;86.106;2023-03-23T13:43:41;99892.56;;;-0.32;46.26
78800;BME280;68148;55.328;86.106;2023-03-23T13:56:54;99891.88;;;-0.34;45.92
78800;BME280;68148;55.328;86.106;2023-03-23T14:11:50;99895.50;;;-0.36;46.58
78800;BME280;68148;55.328;86.106;2023-03-23T14:14:49;99904.09;;;-0.36;47.16
78800;BME280;68148;55.328;86.106;2023-03-23T14:17:19;99907.31;;;-0.32;47.70
78800;BME280;68148;55.328;86.106;2023-03-23T14:19:50;99906.00;;;-0.38;47.04
78800;BME280;68148;55.328;86.106;2023-03-23T14:22:24;99911.53;;;-0.31;47.18
78800;BME280;68148;55.328;86.106;2023-03-23T14:24:50;99910.50;;;-0.29;47.26
78800;BME280;68148;55.328;86.106;2023-03-23T14:27:23;99918.28;;;-0.29;47.91
78800;BME280;68148;55.328;86.106;2023-03-23T14:30:07;99908.75;;;-0.28;47.85
78800;BME280;68148;55.328;86.106;2023-03-23T14:32:34;99905.09;;;-0.26;45.92
78800;BME280;68148;55.328;86.106;2023-03-23T14:35:26;99901.56;;;-0.24;47.01
78800;BME280;68148;55.328;86.106;2023-03-23T14:37:54;99895.44;;;-0.23;47.63
78800;BME280;68148;55.328;86.106;2023-03-23T14:40:21;99889.91;;;-0.19;47.07
78800;BME280;68148;55.328;86.106;2023-03-23T14:42:47;99894.47;;;-0.22;46.52
78800;BME280;68148;55.328;86.106;2023-03-23T14:45:17;99886.94;;;-0.26;45.46
78800;BME280;68148;55.328;86.106;2023-03-23T14:48:07;99881.63;;;-0.24;45.28
78800;BME280;68148;55.328;86.106;2023-03-23T14:50:39;99881.75;;;-0.26;44.05
78800;BME280;68148;55.328;86.106;2023-03-23T14:53:25;99886.81;;;-0.24;42.83
78800;BME280;68148;55.328;86.106;2023-03-23T14:55:55;99878.22;;;-0.13;44.29
78800;BME280;68148;55.328;86.106;2023-03-23T14:58:24;99881.09;;;-0.16;43.80